createdAt,value
2019-01-22T00:04:50.565Z,27.23
2019-01-22T00:09:54.701Z,36.13
2019-01-22T00:14:59.356Z,35.90
2019-01-22T00:20:20.370Z,26.23
2019-01-22T00:25:25.057Z,33.27
2019-01-22T00:30:30.809Z,25.27
2019-01-22T00:35:33.884Z,46.87
2019-01-22T00:40:38.477Z,31.83
2019-01-22T00:45:43.141Z,47.70
2019-01-22T00:50:51.320Z,30.87
2019-01-22T00:55:54.707Z,30.47
2019-01-22T01:00:57.587Z,29.60
2019-01-22T01:06:04.405Z,42.80
2019-01-22T01:11:08.604Z,49.50
2019-01-22T01:16:16.123Z,31.90
2019-01-22T01:21:23.276Z,36.80
2019-01-22T01:26:27.972Z,35.27
2019-01-22T01:31:32.460Z,39.83
2019-01-22T01:36:53.407Z,28.17
2019-01-22T01:42:14.792Z,29.77
2019-01-22T01:47:18.096Z,22.23
2019-01-22T01:52:30.650Z,34.93
2019-01-22T01:57:35.825Z,24.30
2019-01-22T02:02:41.942Z,38.53
2019-01-22T02:07:45.294Z,44.73
2019-01-22T02:13:01.355Z,36.47
2019-01-22T02:18:28.111Z,31.90
2019-01-22T02:24:12.078Z,40.20
2019-01-22T02:29:21.871Z,31.40
2019-01-22T02:35:12.115Z,45.30
2019-01-22T02:40:40.776Z,43.50
2019-01-22T02:46:17.662Z,46.47
2019-01-22T02:51:57.209Z,43.63
2019-01-22T02:58:18.402Z,47.87
2019-01-22T03:03:57.152Z,53.00
2019-01-22T03:09:33.537Z,40.97
2019-01-22T03:15:02.271Z,47.80
2019-01-22T03:20:17.713Z,38.47
2019-01-22T03:26:03.191Z,37.27
2019-01-22T03:31:48.873Z,44.57
2019-01-22T03:37:49.603Z,33.37
2019-01-22T03:43:43.991Z,36.70
2019-01-22T03:49:29.559Z,40.93
2019-01-22T03:55:06.042Z,49.03
2019-01-22T04:00:22.423Z,33.93
2019-01-22T04:05:25.718Z,45.10
2019-01-22T04:11:02.404Z,48.83
2019-01-22T04:16:06.016Z,38.37
2019-01-22T04:21:13.163Z,48.83
2019-01-22T04:27:01.305Z,40.47
2019-01-22T04:32:10.680Z,42.27
2019-01-22T04:37:36.908Z,49.07
2019-01-22T04:43:17.342Z,42.40
2019-01-22T04:49:08.058Z,37.57
2019-01-22T04:54:51.660Z,36.10
2019-01-22T05:00:49.383Z,41.17
2019-01-22T05:06:31.281Z,44.33
2019-01-22T05:12:38.475Z,37.63
2019-01-22T05:18:14.599Z,42.00
2019-01-22T05:23:47.797Z,41.83
2019-01-22T05:29:16.105Z,44.57
2019-01-22T06:18:40.662Z,54.00
2019-01-22T07:32:13.360Z,48.87
2019-01-22T07:38:06.256Z,48.30
2019-01-22T15:14:37.387Z,93.17
2019-01-22T15:19:42.359Z,97.33
2019-01-22T15:25:09.548Z,91.73
2019-01-22T15:30:22.635Z,97.43
2019-01-22T15:35:45.060Z,83.57
2019-01-22T15:40:48.822Z,84.30
2019-01-22T15:46:10.074Z,100.03
2019-01-22T15:51:15.059Z,95.80
2019-01-22T15:56:37.118Z,93.00
2019-01-22T16:01:41.795Z,85.37
2019-01-22T16:07:02.840Z,83.53
2019-01-22T16:12:06.601Z,90.60
2019-01-22T16:17:27.674Z,94.53
2019-01-22T16:22:30.435Z,103.67
2019-01-22T16:27:53.660Z,94.73
2019-01-22T16:33:14.614Z,90.53
2019-01-22T16:38:35.746Z,78.10
2019-01-22T16:43:56.840Z,84.90
2019-01-22T16:49:20.343Z,91.80
2019-01-22T16:54:41.095Z,86.23
2019-01-22T16:59:46.357Z,90.70
2019-01-22T17:05:08.636Z,86.93
2019-01-22T17:10:16.454Z,96.37
2019-01-22T17:15:19.659Z,91.00
2019-01-22T17:20:29.242Z,95.50
2019-01-22T17:25:36.574Z,92.97
2019-01-22T17:30:42.655Z,89.27
2019-01-22T17:35:57.042Z,102.17
2019-01-22T17:41:09.917Z,87.80
2019-01-22T17:46:13.491Z,84.50
2019-01-22T17:51:22.723Z,85.30
2019-01-22T17:56:31.057Z,96.67
2019-01-22T18:01:36.741Z,96.40
2019-01-22T18:06:43.324Z,80.13
2019-01-22T18:12:04.517Z,96.90
2019-01-22T18:17:26.491Z,86.33
2019-01-22T18:22:29.604Z,90.17
2019-01-22T18:27:33.630Z,96.83
2019-01-22T18:32:46.307Z,94.50
2019-01-22T18:37:49.153Z,89.80
2019-01-22T18:42:52.171Z,84.83
2019-01-22T18:47:58.069Z,83.00
2019-01-22T18:53:08.390Z,84.23
2019-01-22T18:58:37.507Z,82.63
2019-01-22T19:03:49.070Z,81.90
2019-01-22T19:09:11.677Z,75.83
2019-01-22T19:14:32.696Z,85.47
2019-01-22T19:19:53.892Z,83.33
2019-01-22T19:24:56.730Z,88.10
2019-01-22T19:29:59.930Z,62.27
2019-01-22T19:35:21.264Z,73.80
2019-01-22T19:40:33.822Z,77.57
2019-01-22T19:45:37.236Z,79.53
2019-01-22T19:50:49.210Z,87.73
2019-01-22T19:56:13.897Z,86.50
2019-01-22T20:01:18.270Z,83.27
2019-01-22T20:06:39.191Z,74.87
2019-01-22T20:11:52.119Z,81.47
2019-01-22T20:16:54.944Z,84.07
2019-01-22T20:22:16.480Z,74.40
2019-01-22T20:27:30.079Z,73.00
2019-01-22T20:32:36.505Z,66.57
2019-01-22T20:37:58.403Z,59.63
2019-01-22T20:43:20.127Z,63.90
2019-01-22T20:48:22.899Z,66.80
2019-01-22T20:53:25.682Z,72.43
2019-01-22T20:58:28.545Z,74.43
2019-01-22T21:03:34.304Z,65.20
2019-01-22T21:08:37.768Z,73.10
2019-01-22T21:13:40.671Z,71.37
2019-01-22T21:18:44.423Z,64.63
2019-01-22T21:24:05.630Z,67.03
2019-01-22T21:29:09.684Z,64.37
2019-01-22T21:34:16.243Z,66.67
2019-01-22T21:39:20.780Z,55.97
2019-01-22T21:44:34.779Z,58.80
2019-01-22T21:49:40.930Z,57.33
2019-01-22T21:54:44.419Z,56.23
2019-01-22T21:59:49.908Z,58.17
2019-01-22T22:05:11.155Z,64.27
2019-01-22T22:10:18.415Z,59.50
2019-01-22T22:15:23.048Z,63.53
2019-01-22T22:20:31.263Z,56.70
2019-01-22T22:25:38.410Z,63.17
2019-01-22T22:30:42.499Z,63.40
2019-01-22T22:36:03.551Z,73.70
2019-01-22T22:41:15.394Z,66.53
2019-01-22T22:46:18.596Z,70.30
2019-01-22T22:51:24.751Z,68.20
2019-01-22T22:56:27.739Z,75.40
2019-01-22T23:01:36.992Z,60.33
2019-01-22T23:06:41.397Z,69.27
2019-01-22T23:11:44.233Z,57.90
2019-01-22T23:16:48.163Z,55.00
2019-01-22T23:21:50.947Z,57.37
2019-01-22T23:27:11.621Z,53.33
2019-01-22T23:32:16.162Z,52.03
2019-01-22T23:37:21.302Z,51.83
2019-01-22T23:42:24.433Z,49.77
2019-01-22T23:47:28.183Z,55.67
2019-01-22T23:52:31.095Z,50.80
2019-01-22T23:57:41.067Z,59.60
